Current Weather Conditions: station 62114

sailwx.info

See reports from other nearby stations

no recent reports received from weather station ID 62114

Tides Pressure Air temp Water temp Dewpoint Dewpoint depression Visibility Wind speed Wind direction Waves Ship positions
date/time (UTC)wind fromknots sea level pressurealtimeterstation pressurevisibilityair tempwater tempwave heightnotes
2015-Jan-28 12:00 260 29 4.8
2015-Jan-28 11:00 260 27 5.0
2015-Jan-28 10:00 260 24 5.0
2015-Jan-28 09:00 280 24 4.2
2015-Jan-28 08:00 210 26 7.6
2015-Jan-28 07:00 200 24 7.5
2015-Jan-28 06:00 200 29 7.5
2015-Jan-28 05:00 210 31 7.6
2015-Jan-28 04:00 210 26 7.4
2015-Jan-28 03:00 200 30 7.0
2015-Jan-28 02:00 200 27 7.1
2015-Jan-28 01:00 200 26 7.3
2015-Jan-28 00:00 200 26 7.4
2015-Jan-27 23:00 200 20 7.8
2015-Jan-27 22:00 200 19 7.9
2015-Jan-27 21:00 230 22 8.1
2015-Jan-27 20:00 210 20 8.0
2015-Jan-27 19:00 210 18 8.3
2015-Jan-27 18:00 200 19 8.1
2015-Jan-27 17:00 210 19 7.7
2015-Jan-27 16:00 220 18 7.5
2015-Jan-27 15:00 230 20 7.6
2015-Jan-27 14:00 240 23 7.6
2015-Jan-27 13:00 240 25 7.6
2015-Jan-27 12:00 240 22 7.3
2015-Jan-27 11:00 240 22 7.3
2015-Jan-27 10:00 240 22 7.4
2015-Jan-27 09:00 250 22 7.2
2015-Jan-27 08:00 250 20 7.1
2015-Jan-27 07:00 250 20 7.0
2015-Jan-27 06:00 260 22 6.8
2015-Jan-27 05:00 270 23 6.8
2015-Jan-27 04:00 270 20 6.9
2015-Jan-27 03:00 270 20 7.1
2015-Jan-27 02:00 270 20 7.0
2015-Jan-27 01:00 280 22 6.6
2015-Jan-27 00:00 280 20 6.8
2015-Jan-26 23:00 280 19 6.5
2015-Jan-26 22:00 280 19 5.9
2015-Jan-26 21:00 290 17 6.3
2015-Jan-26 20:00 300 23 6.1
2015-Jan-26 19:00 280 24 6.1
2015-Jan-26 18:00 290 24 5.8
2015-Jan-26 17:00 280 25 5.7
2015-Jan-26 16:00 280 26 5.5
2015-Jan-26 15:00 280 30 5.5
2015-Jan-26 14:00 290 23 4.8